Time;durP1;ratioP1;P1;durP2;ratioP2;P2;SDS_P1;SDS_P2;PMS_P1;PMS_P2;Temp;Humidity;BMP_temperature;BMP_pressure;BME280_temperature;BME280_humidity;BME280_pressure;Samples;Min_cycle;Max_cycle;Signal;HPM_P1;HPM_P2
2022/07/27 00:00:19;;;;;;;5.95;3.75;;;;;;;16.67;100.00;98034.81;1639103;85;28189;-87
2022/07/27 00:02:50;;;;;;;6.83;3.75;;;;;;;16.58;100.00;98039.16;1638705;85;28084;-87
2022/07/27 00:05:16;;;;;;;4.33;3.70;;;;;;;16.55;100.00;98038.66;1640187;85;28178;-87
2022/07/27 00:07:42;;;;;;;5.87;3.60;;;;;;;16.51;100.00;98043.42;1646564;85;28116;-87
2022/07/27 00:10:09;;;;;;;4.95;3.95;;;;;;;16.52;100.00;98042.94;1665202;83;28146;-87
2022/07/27 00:12:41;;;;;;;4.97;3.52;;;;;;;16.58;100.00;98037.84;1667668;83;28083;-87
2022/07/27 00:15:16;;;;;;;5.75;3.80;;;;;;;16.64;100.00;98034.62;1664796;83;28087;-87
2022/07/27 00:17:46;;;;;;;5.92;3.67;;;;;;;16.66;100.00;98035.80;1666745;83;28069;-87
2022/07/27 00:20:12;;;;;;;4.62;2.98;;;;;;;16.62;100.00;98033.96;1664708;83;28188;-89
2022/07/27 00:22:38;;;;;;;5.58;3.98;;;;;;;16.59;100.00;98037.38;1663668;83;28036;-89
2022/07/27 00:25:07;;;;;;;5.10;2.87;;;;;;;16.57;100.00;98037.53;1670368;83;28194;-88
2022/07/27 00:27:33;;;;;;;4.50;3.15;;;;;;;16.58;100.00;98044.97;1636369;85;28084;-87
2022/07/27 00:30:01;;;;;;;4.17;3.30;;;;;;;16.54;100.00;98043.11;1640667;85;28156;-86
2022/07/27 00:32:27;;;;;;;4.10;2.87;;;;;;;16.51;100.00;98042.11;1668348;83;28080;-86
2022/07/27 00:34:53;;;;;;;3.45;2.98;;;;;;;16.46;100.00;98047.02;1636349;85;28071;-86
2022/07/27 00:37:19;;;;;;;3.95;3.15;;;;;;;16.43;100.00;98047.31;1669043;84;28200;-86
2022/07/27 00:39:47;;;;;;;4.58;3.10;;;;;;;16.42;100.00;98048.80;1667444;84;28082;-85
2022/07/27 00:42:13;;;;;;;5.33;2.85;;;;;;;16.41;100.00;98045.82;1667485;84;28134;-85
2022/07/27 00:44:41;;;;;;;4.25;3.15;;;;;;;16.33;100.00;98047.41;1667507;84;28138;-86
2022/07/27 00:47:13;;;;;;;4.45;3.02;;;;;;;16.31;100.00;98050.67;1667581;84;28084;-85
2022/07/27 00:49:41;;;;;;;3.90;2.80;;;;;;;16.30;100.00;98057.45;1668239;84;28066;-86
2022/07/27 00:52:10;;;;;;;3.72;2.60;;;;;;;16.32;100.00;98058.95;1633819;85;28072;-85
2022/07/27 00:54:39;;;;;;;6.03;3.10;;;;;;;16.38;100.00;98061.95;1640703;85;28103;-85
2022/07/27 00:57:10;;;;;;;5.85;2.80;;;;;;;16.38;100.00;98060.14;1648136;83;28021;-85
2022/07/27 00:59:35;;;;;;;4.42;2.80;;;;;;;16.30;100.00;98066.21;1653319;84;28068;-89
2022/07/27 01:02:03;;;;;;;3.15;2.62;;;;;;;16.31;100.00;98056.45;1669395;84;28108;-89
2022/07/27 01:04:31;;;;;;;3.52;2.80;;;;;;;16.28;100.00;98056.28;1669146;84;28105;-86
2022/07/27 01:07:02;;;;;;;4.78;2.90;;;;;;;16.28;100.00;98057.59;1669436;84;28106;-85
2022/07/27 01:12:19;;;;;;;3.12;2.80;;;;;;;16.34;100.00;98061.44;1666778;84;28083;-86
2022/07/27 01:14:48;;;;;;;5.37;2.90;;;;;;;16.30;100.00;98056.13;1661090;85;28000;-88
2022/07/27 01:17:15;;;;;;;3.80;2.90;;;;;;;16.30;100.00;98050.85;1666844;84;28000;-86
2022/07/27 01:19:42;;;;;;;5.67;2.95;;;;;;;16.31;100.00;98062.56;1669098;84;28177;-85
2022/07/27 01:22:10;;;;;;;4.05;3.65;;;;;;;16.31;100.00;98055.95;1664211;84;28114;-85
2022/07/27 01:24:38;;;;;;;4.85;2.95;;;;;;;16.31;100.00;98055.95;1664306;83;28156;-85
2022/07/27 01:27:05;;;;;;;5.08;2.77;;;;;;;16.29;100.00;98058.43;1667383;83;28015;-85
2022/07/27 01:29:38;;;;;;;7.55;3.10;;;;;;;16.28;100.00;98061.56;1668970;84;28066;-85
2022/07/27 01:32:05;;;;;;;4.85;3.20;;;;;;;16.24;100.00;98056.73;1667793;84;28097;-89
2022/07/27 01:34:32;;;;;;;4.97;3.12;;;;;;;16.21;100.00;98060.50;1666824;84;28076;-88
2022/07/27 01:37:04;;;;;;;6.33;3.70;;;;;;;16.19;100.00;98069.08;1668566;83;28166;-88
2022/07/27 01:39:33;;;;;;;5.72;4.00;;;;;;;16.18;100.00;98074.02;1669874;84;28097;-86
2022/07/27 01:42:00;;;;;;;5.00;3.77;;;;;;;16.14;100.00;98075.30;1669486;83;28110;-85
2022/07/27 01:44:27;;;;;;;8.40;4.90;;;;;;;16.09;100.00;98068.30;1667860;84;28080;-85
2022/07/27 01:46:53;;;;;;;7.35;4.20;;;;;;;16.04;100.00;98067.92;1670336;83;28108;-87
2022/07/27 01:49:19;;;;;;;8.33;5.00;;;;;;;15.96;100.00;98070.98;1666475;83;28169;-87
2022/07/27 01:51:51;;;;;;;4.80;3.90;;;;;;;15.94;100.00;98069.80;1670003;84;28201;-87
2022/07/27 01:54:19;;;;;;;10.60;5.33;;;;;;;15.93;100.00;98073.94;1667245;84;28004;-89
2022/07/27 01:56:45;;;;;;;9.68;5.12;;;;;;;15.92;100.00;98078.86;1667021;84;28164;-86
2022/07/27 01:59:11;;;;;;;9.13;4.97;;;;;;;15.92;100.00;98081.02;1678931;83;28078;-86
2022/07/27 02:01:37;;;;;;;8.33;5.80;;;;;;;15.89;100.00;98079.48;1689229;83;28176;-88
2022/07/27 02:04:09;;;;;;;12.75;6.25;;;;;;;15.89;100.00;98078.66;1689842;83;28097;-86
2022/07/27 02:06:35;;;;;;;8.93;6.37;;;;;;;15.86;100.00;98076.33;1687292;83;28059;-85
2022/07/27 02:09:03;;;;;;;9.60;6.47;;;;;;;15.84;100.00;98077.79;1695120;84;28098;-87
2022/07/27 02:14:21;;;;;;;10.80;7.08;;;;;;;15.84;100.00;98094.94;1691622;84;28027;-85
2022/07/27 02:16:54;;;;;;;12.80;8.08;;;;;;;15.80;100.00;98100.67;1684263;84;28023;-85
2022/07/27 02:19:20;;;;;;;11.18;7.85;;;;;;;15.78;100.00;98111.84;1691478;83;28193;-85
2022/07/27 02:21:46;;;;;;;10.75;7.78;;;;;;;15.73;100.00;98111.46;1685924;84;28037;-88
2022/07/27 02:24:12;;;;;;;16.48;8.13;;;;;;;15.71;100.00;98098.92;1687138;84;28079;-86
2022/07/27 02:26:38;;;;;;;14.33;7.58;;;;;;;15.72;100.00;98095.28;1688030;84;28093;-87
2022/07/27 02:29:04;;;;;;;12.82;7.72;;;;;;;15.71;100.00;98096.29;1691011;84;28138;-88
2022/07/27 02:31:31;;;;;;;10.70;7.30;;;;;;;15.72;100.00;98112.44;1685983;83;28077;-87
2022/07/27 02:33:57;;;;;;;11.80;7.03;;;;;;;15.65;100.00;98116.66;1689585;84;28029;-87
2022/07/27 02:36:23;;;;;;;9.65;5.95;;;;;;;15.62;100.00;98110.34;1680466;83;28101;-89
2022/07/27 02:38:50;;;;;;;9.78;6.50;;;;;;;15.61;100.00;98107.35;1686374;84;28126;-85
2022/07/27 02:41:22;;;;;;;11.35;7.00;;;;;;;15.63;100.00;98107.56;1687713;83;28304;-86
2022/07/27 02:43:48;;;;;;;11.97;6.78;;;;;;;15.65;100.00;98107.42;1680477;84;28021;-86
2022/07/27 02:46:14;;;;;;;9.73;6.50;;;;;;;15.65;100.00;98115.34;1684279;83;28090;-87
2022/07/27 02:48:40;;;;;;;9.40;6.67;;;;;;;15.69;100.00;98119.34;1686615;84;28094;-89
2022/07/27 02:51:08;;;;;;;12.47;7.10;;;;;;;15.67;100.00;98122.60;1686388;84;28141;-88
2022/07/27 02:53:34;;;;;;;12.90;7.08;;;;;;;15.64;100.00;98129.50;1688225;84;28493;-85
2022/07/27 02:56:00;;;;;;;8.65;7.20;;;;;;;15.61;100.00;98118.73;1682656;84;28112;-85
2022/07/27 02:58:32;;;;;;;8.45;5.62;;;;;;;15.62;100.00;98119.57;1685578;83;28495;-85
2022/07/27 03:01:05;;;;;;;10.15;6.45;;;;;;;15.62;100.00;98122.20;1684221;84;28084;-85
2022/07/27 03:03:31;;;;;;;12.60;6.40;;;;;;;15.63;100.00;98119.44;1685307;84;28104;-85
2022/07/27 03:06:07;;;;;;;8.80;5.58;;;;;;;15.64;100.00;98114.99;1686142;84;28215;-86
2022/07/27 03:08:35;;;;;;;8.88;5.50;;;;;;;15.64;100.00;98126.37;1686456;84;28196;-86
2022/07/27 03:11:04;;;;;;;6.60;5.03;;;;;;;15.64;100.00;98125.06;1684282;83;28095;-87
2022/07/27 03:13:30;;;;;;;7.03;4.78;;;;;;;15.68;100.00;98121.14;1683532;84;28083;-87
2022/07/27 03:15:57;;;;;;;6.45;4.58;;;;;;;15.69;100.00;98127.25;1682666;84;28148;-87
2022/07/27 03:18:24;;;;;;;5.83;4.33;;;;;;;15.72;100.00;98129.58;1683242;84;28152;-87
2022/07/27 03:20:51;;;;;;;9.25;5.35;;;;;;;15.76;100.00;98129.66;1687519;84;28078;-87
2022/07/27 03:23:24;;;;;;;5.70;4.80;;;;;;;15.77;100.00;98128.66;1687713;84;28002;-85
2022/07/27 03:25:50;;;;;;;9.90;4.97;;;;;;;15.78;100.00;98129.00;1682200;84;28129;-89
2022/07/27 03:28:18;;;;;;;5.22;4.10;;;;;;;15.79;100.00;98134.14;1680947;84;28123;-85
2022/07/27 03:30:45;;;;;;;8.85;3.90;;;;;;;15.81;100.00;98129.56;1685752;83;28017;-89
2022/07/27 03:33:13;;;;;;;7.15;4.55;;;;;;;15.79;100.00;98132.82;1685308;84;28032;-89
2022/07/27 03:35:41;;;;;;;8.95;3.83;;;;;;;15.79;100.00;98131.50;1680670;84;28178;-85
2022/07/27 03:38:07;;;;;;;8.65;4.28;;;;;;;15.83;100.00;98130.70;1682367;83;28063;-85
2022/07/27 03:40:33;;;;;;;8.18;4.12;;;;;;;15.85;100.00;98137.52;1686055;83;28069;-85
2022/07/27 03:43:02;;;;;;;7.53;4.30;;;;;;;15.88;100.00;98145.61;1679977;84;28146;-87
2022/07/27 03:45:31;;;;;;;9.35;3.58;;;;;;;15.92;100.00;98148.31;1683821;83;28089;-89
2022/07/27 03:48:01;;;;;;;8.00;3.90;;;;;;;15.94;100.00;98142.38;1685923;84;28096;-86
2022/07/27 03:50:27;;;;;;;7.97;3.47;;;;;;;15.96;100.00;98140.92;1684057;84;28083;-85
2022/07/27 03:52:55;;;;;;;6.90;3.72;;;;;;;16.02;100.00;98145.61;1689757;83;28074;-87
2022/07/27 03:55:21;;;;;;;5.83;3.62;;;;;;;16.05;100.00;98138.22;1689425;84;28093;-87
2022/07/27 03:57:49;;;;;;;4.37;3.30;;;;;;;16.07;100.00;98137.59;1687295;84;28085;-87
2022/07/27 04:00:15;;;;;;;6.90;3.90;;;;;;;16.10;100.00;98139.09;1684316;84;28120;-87
2022/07/27 04:02:43;;;;;;;6.60;4.17;;;;;;;16.14;100.00;98128.11;1683211;84;28093;-88
2022/07/27 04:05:15;;;;;;;6.92;3.75;;;;;;;16.20;100.00;98131.44;1685209;84;28124;-85
2022/07/27 04:07:42;;;;;;;7.00;4.45;;;;;;;16.25;100.00;98129.70;1685254;84;28106;-85
2022/07/27 04:10:09;;;;;;;4.60;3.98;;;;;;;16.30;100.00;98130.91;1689444;83;28176;-85
2022/07/27 04:12:36;;;;;;;4.75;3.75;;;;;;;16.35;100.00;98126.98;1688543;84;27988;-85
2022/07/27 04:15:04;;;;;;;6.47;4.00;;;;;;;16.42;100.00;98128.05;1686793;84;28098;-88
2022/07/27 04:17:34;;;;;;;8.80;4.00;;;;;;;16.48;100.00;98130.05;1687566;84;28089;-85
2022/07/27 04:20:04;;;;;;;4.05;3.62;;;;;;;16.59;100.00;98129.85;1688542;83;28136;-85
2022/07/27 04:22:31;;;;;;;9.10;3.77;;;;;;;16.72;100.00;98130.31;1691394;83;28126;-86
2022/07/27 04:24:58;;;;;;;5.05;3.80;;;;;;;16.85;100.00;98131.24;1689893;83;28034;-86
2022/07/27 04:27:32;;;;;;;5.92;3.17;;;;;;;16.98;100.00;98123.72;1689980;84;28082;-87
2022/07/27 04:30:03;;;;;;;6.83;3.50;;;;;;;17.04;100.00;98129.72;1689067;83;28101;-87
2022/07/27 04:32:30;;;;;;;5.35;3.35;;;;;;;16.99;100.00;98131.50;1689671;84;28134;-88
2022/07/27 04:34:56;;;;;;;7.28;3.98;;;;;;;17.06;100.00;98135.69;1697940;82;28049;-85
2022/07/27 04:37:22;;;;;;;4.62;3.52;;;;;;;17.20;100.00;98128.98;1686098;83;28071;-87
2022/07/27 04:39:49;;;;;;;6.35;3.62;;;;;;;17.31;100.00;98125.59;1687283;83;28183;-87
2022/07/27 04:42:15;;;;;;;5.20;3.80;;;;;;;17.36;100.00;98133.05;1688984;83;28070;-86
2022/07/27 04:44:41;;;;;;;5.67;3.95;;;;;;;17.38;100.00;98137.70;1692414;84;28141;-86
2022/07/27 04:47:07;;;;;;;4.42;3.77;;;;;;;17.43;100.00;98139.38;1682056;84;28019;-87
2022/07/27 04:49:33;;;;;;;4.92;3.72;;;;;;;17.49;100.00;98140.91;1682919;84;28062;-87
2022/07/27 04:52:00;;;;;;;8.18;4.75;;;;;;;17.52;100.00;98139.25;1683093;83;28059;-87
2022/07/27 04:54:26;;;;;;;7.42;4.08;;;;;;;17.54;100.00;98135.97;1681615;84;28161;-87
2022/07/27 04:56:52;;;;;;;6.95;4.03;;;;;;;17.54;100.00;98137.78;1688381;84;28154;-87
2022/07/27 04:59:19;;;;;;;6.03;4.08;;;;;;;17.59;100.00;98138.14;1681827;84;28076;-88
2022/07/27 05:01:45;;;;;;;7.35;3.85;;;;;;;17.65;100.00;98131.41;1630766;85;28079;-89
2022/07/27 05:04:12;;;;;;;8.83;3.60;;;;;;;17.71;100.00;98133.43;1630514;87;28193;-88
2022/07/27 05:06:38;;;;;;;6.90;3.50;;;;;;;17.78;100.00;98138.43;1629807;87;28029;-88
2022/07/27 05:09:04;;;;;;;7.75;3.83;;;;;;;17.83;100.00;98138.78;1593144;88;28101;-88
2022/07/27 05:11:30;;;;;;;6.03;4.05;;;;;;;17.89;100.00;98142.11;1624969;86;28101;-85
2022/07/27 05:13:56;;;;;;;6.75;3.25;;;;;;;17.91;100.00;98139.63;1615462;87;28003;-88
2022/07/27 05:16:31;;;;;;;6.67;3.40;;;;;;;17.96;100.00;98149.23;1616275;87;28167;-88
2022/07/27 05:18:58;;;;;;;5.60;3.17;;;;;;;18.00;100.00;98148.44;1618168;87;28141;-86
2022/07/27 05:21:26;;;;;;;6.60;3.72;;;;;;;18.07;100.00;98144.14;1635872;87;28151;-87
2022/07/27 05:23:55;;;;;;;5.78;3.83;;;;;;;18.14;100.00;98146.48;1627383;87;28106;-87
2022/07/27 05:26:25;;;;;;;7.22;3.65;;;;;;;18.24;100.00;98152.95;1623221;87;28096;-87
2022/07/27 05:29:01;;;;;;;7.00;3.58;;;;;;;18.32;100.00;98154.31;1622422;86;28121;-85
2022/07/27 05:31:20;;;;;;;7.80;3.30;;;;;;;18.40;100.00;98149.02;1599627;87;28099;-85
2022/07/27 05:33:48;;;;;;;7.50;3.67;;;;;;;18.43;100.00;98161.12;1596335;87;28131;-85
2022/07/27 05:36:16;;;;;;;5.67;3.22;;;;;;;18.36;100.00;98156.47;1596775;87;28174;-85
2022/07/27 05:38:42;;;;;;;5.65;3.08;;;;;;;18.44;100.00;98161.47;1597447;87;28114;-86
2022/07/27 05:41:10;;;;;;;6.12;3.72;;;;;;;18.54;100.00;98162.14;1628715;86;32888;-85
2022/07/27 05:43:36;;;;;;;12.43;4.20;;;;;;;18.61;100.00;98160.50;1629835;86;28065;-85
2022/07/27 05:46:08;;;;;;;5.85;3.42;;;;;;;18.60;100.00;98162.84;1601394;87;43060;-89
2022/07/27 05:48:35;;;;;;;5.55;3.47;;;;;;;18.69;100.00;98160.52;1610442;87;28145;-89
2022/07/27 05:51:04;;;;;;;6.47;3.40;;;;;;;18.84;100.00;98162.84;1607764;87;28098;-85
2022/07/27 05:53:50;;;;;;;4.35;3.02;;;;;;;18.91;100.00;98164.34;1635775;87;28088;-85
2022/07/27 05:56:14;;;;;;;6.50;3.50;;;;;;;18.89;100.00;98172.94;1616734;87;28079;-85
2022/07/27 05:58:40;;;;;;;9.83;3.02;;;;;;;18.92;100.00;98176.12;1624205;87;28134;-85
2022/07/27 06:01:06;;;;;;;5.37;3.45;;;;;;;18.99;100.00;98172.27;1622492;86;28223;-85
2022/07/27 06:03:37;;;;;;;3.75;3.45;;;;;;;19.08;100.00;98164.66;1658535;86;28071;-88
2022/07/27 06:08:48;;;;;;;4.90;3.67;;;;;;;19.32;100.00;98157.98;1662536;83;28106;-85
2022/07/27 06:11:16;;;;;;;6.80;3.45;;;;;;;19.44;100.00;98168.58;1658379;83;28064;-89
2022/07/27 06:13:44;;;;;;;10.53;3.20;;;;;;;19.45;100.00;98170.77;1634187;85;28117;-88
2022/07/27 06:16:12;;;;;;;4.30;3.30;;;;;;;19.48;100.00;98167.77;1658470;86;28157;-89
2022/07/27 06:18:38;;;;;;;5.12;3.08;;;;;;;19.58;100.00;98162.59;1659146;83;28113;-85
2022/07/27 06:21:05;;;;;;;4.97;3.37;;;;;;;19.69;100.00;98167.23;1656893;83;28069;-85
2022/07/27 06:23:31;;;;;;;9.03;2.77;;;;;;;19.74;100.00;98170.20;1664297;85;28124;-85
2022/07/27 06:26:03;;;;;;;4.25;2.92;;;;;;;19.78;100.00;98173.67;1659837;86;28012;-85
2022/07/27 06:28:33;;;;;;;7.20;2.85;;;;;;;19.81;100.00;98176.46;1659453;84;28090;-85
2022/07/27 06:31:02;;;;;;;6.92;3.33;;;;;;;19.84;100.00;98173.48;1658008;86;28157;-87
2022/07/27 06:33:30;;;;;;;6.97;3.00;;;;;;;19.66;100.00;98168.89;1664394;86;28098;-87
2022/07/27 06:36:00;;;;;;;5.00;2.75;;;;;;;19.59;100.00;98174.88;1660412;83;28078;-85
2022/07/27 06:38:28;;;;;;;6.10;3.02;;;;;;;19.75;100.00;98178.47;1660440;83;28094;-85
2022/07/27 06:40:57;;;;;;;5.03;3.10;;;;;;;19.91;100.00;98179.24;1634462;86;28030;-88
2022/07/27 06:43:28;;;;;;;5.17;3.08;;;;;;;20.03;100.00;98176.55;1660367;86;28110;-88
2022/07/27 06:46:02;;;;;;;6.58;3.27;;;;;;;20.06;100.00;98187.34;1661472;86;28151;-89
2022/07/27 06:48:28;;;;;;;5.60;3.02;;;;;;;20.06;100.00;98186.01;1656602;84;28122;-85
2022/07/27 06:50:57;;;;;;;6.60;2.92;;;;;;;20.05;100.00;98193.15;1676967;83;28195;-85
2022/07/27 06:53:25;;;;;;;4.78;3.00;;;;;;;20.13;100.00;98192.27;1632797;86;28114;-85
2022/07/27 06:55:52;;;;;;;5.83;2.92;;;;;;;20.22;100.00;98195.23;1656855;83;28090;-87
2022/07/27 06:58:20;;;;;;;4.70;3.05;;;;;;;20.31;100.00;98198.66;1660496;84;28138;-86
2022/07/27 07:00:46;;;;;;;5.65;3.22;;;;;;;20.41;100.00;98192.16;1665389;82;28436;-87
2022/07/27 07:03:12;;;;;;;4.70;3.20;;;;;;;20.48;100.00;98196.78;1680294;83;28130;-87
2022/07/27 07:05:44;;;;;;;5.10;2.85;;;;;;;20.48;100.00;98192.79;1683740;84;28053;-86
2022/07/27 07:08:12;;;;;;;5.55;2.83;;;;;;;20.48;100.00;98188.80;1679417;83;28092;-85
2022/07/27 07:10:39;;;;;;;4.80;2.92;;;;;;;20.42;100.00;98181.86;1680119;83;28102;-87
2022/07/27 07:13:07;;;;;;;7.28;3.37;;;;;;;20.43;100.00;98183.52;1682826;84;28022;-87
2022/07/27 07:15:35;;;;;;;5.35;3.40;;;;;;;20.45;100.00;98182.85;1678373;84;28115;-86
2022/07/27 07:18:02;;;;;;;3.87;3.33;;;;;;;20.44;100.00;98183.02;1678866;84;28087;-85
2022/07/27 07:20:34;;;;;;;4.62;3.12;;;;;;;20.40;100.00;98184.38;1680246;84;28138;-86
2022/07/27 07:23:00;;;;;;;5.28;3.10;;;;;;;20.48;100.00;98179.00;1680981;83;28243;-87
2022/07/27 07:25:29;;;;;;;4.72;3.27;;;;;;;20.58;100.00;98174.78;1678486;83;28085;-86
2022/07/27 07:27:55;;;;;;;3.95;3.08;;;;;;;20.60;100.00;98173.61;1682625;83;28177;-89
2022/07/27 07:30:22;;;;;;;4.17;2.87;;;;;;;20.67;100.00;98177.73;1682147;83;28141;-89
2022/07/27 07:32:52;;;;;;;6.50;3.52;;;;;;;20.81;100.00;98179.11;1671150;83;28101;-89
2022/07/27 07:35:19;;;;;;;4.15;3.30;;;;;;;21.00;100.00;98185.75;1685463;83;28054;-89
2022/07/27 07:37:45;;;;;;;7.65;2.58;;;;;;;20.98;100.00;98178.98;1686491;83;28203;-85
2022/07/27 07:40:11;;;;;;;5.67;2.90;;;;;;;20.99;100.00;98180.64;1674080;83;28132;-84
2022/07/27 07:42:59;;;;;;;4.90;2.62;;;;;;;21.10;100.00;98179.71;1680907;84;28010;-85
2022/07/27 07:45:26;;;;;;;7.28;2.58;;;;;;;21.23;100.00;98189.25;1674204;85;28158;-84
2022/07/27 07:47:53;;;;;;;7.15;2.98;;;;;;;21.31;100.00;98186.20;1680903;85;28162;-84
2022/07/27 07:50:22;;;;;;;3.72;2.47;;;;;;;21.24;100.00;98192.75;1675181;84;28127;-85
2022/07/27 07:52:50;;;;;;;5.12;2.72;;;;;;;21.34;100.00;98191.16;1673776;83;28056;-86
2022/07/27 07:55:19;;;;;;;3.58;2.45;;;;;;;21.42;100.00;98190.59;1646971;86;28111;-89
2022/07/27 07:57:45;;;;;;;5.00;2.72;;;;;;;21.57;100.00;98186.60;1680176;83;28115;-86
2022/07/27 08:00:19;;;;;;;6.45;2.92;;;;;;;21.62;100.00;98185.05;1682307;83;28075;-89
2022/07/27 08:02:51;;;;;;;5.78;3.45;;;;;;;21.59;100.00;98196.08;1664199;84;28091;-89
2022/07/27 08:05:18;;;;;;;3.80;3.10;;;;;;;21.69;100.00;98183.81;1663985;86;28094;-85
2022/07/27 08:07:50;;;;;;;5.75;2.80;;;;;;;21.78;100.00;98173.88;1629415;85;28108;-85
2022/07/27 08:10:20;;;;;;;5.08;2.67;;;;;;;21.94;100.00;98179.87;1656135;85;28098;-85
2022/07/27 08:12:50;;;;;;;4.92;2.33;;;;;;;21.96;100.00;98184.53;1627524;85;28168;-89
2022/07/27 08:15:19;;;;;;;2.87;2.37;;;;;;;21.98;100.00;98185.69;1663794;84;28102;-85
2022/07/27 08:17:51;;;;;;;2.47;2.10;;;;;;;22.03;100.00;98188.11;1663806;84;28019;-86
2022/07/27 08:20:18;;;;;;;2.75;2.30;;;;;;;21.90;100.00;98186.56;1625405;85;28000;-86
2022/07/27 08:22:44;;;;;;;1.80;1.70;;;;;;;21.68;100.00;98187.48;1636810;86;28125;-86
2022/07/27 08:25:15;;;;;;;3.40;2.10;;;;;;;21.52;100.00;98183.66;1658718;84;28137;-86
2022/07/27 08:27:41;;;;;;;2.95;2.10;;;;;;;21.40;100.00;98179.78;1659415;84;28083;-86
2022/07/27 08:30:11;;;;;;;5.55;1.95;;;;;;;21.29;100.00;98177.89;1664006;83;28033;-86
2022/07/27 08:33:00;;;;;;;2.47;2.27;;;;;;;21.31;100.00;98180.88;1633789;86;28034;-86
2022/07/27 08:35:28;;;;;;;4.95;1.80;;;;;;;21.40;100.00;98181.11;1660467;84;28141;-86
2022/07/27 08:37:57;;;;;;;2.70;1.77;;;;;;;21.42;100.00;98184.44;1657992;84;28076;-85
2022/07/27 08:40:24;;;;;;;2.95;1.65;;;;;;;21.48;100.00;98183.71;1658973;83;28103;-85
2022/07/27 08:42:50;;;;;;;3.35;1.90;;;;;;;21.64;100.00;98189.70;1659759;83;28141;-89
2022/07/27 08:45:18;;;;;;;2.65;1.82;;;;;;;21.69;100.00;98183.31;1658794;84;28110;-89
2022/07/27 08:47:49;;;;;;;4.67;1.67;;;;;;;21.65;100.00;98183.86;1663931;84;28083;-85
2022/07/27 08:50:23;;;;;;;2.62;1.22;;;;;;;21.70;100.00;98182.81;1627581;86;28061;-89
2022/07/27 08:52:54;;;;;;;4.70;2.00;;;;;;;21.69;100.00;98177.98;1660741;83;28098;-88
2022/07/27 08:55:21;;;;;;;3.85;1.95;;;;;;;21.81;100.00;98175.69;1664239;83;28160;-89
2022/07/27 08:57:48;;;;;;;3.45;2.10;;;;;;;21.87;100.00;98179.45;1630551;85;28113;-89
2022/07/27 09:00:15;;;;;;;2.83;1.95;;;;;;;21.86;100.00;98173.30;1635474;85;28082;-85
2022/07/27 09:02:45;;;;;;;3.77;1.85;;;;;;;21.79;100.00;98172.37;1648077;85;28088;-88
2022/07/27 09:05:12;;;;;;;3.85;2.25;;;;;;;21.76;100.00;98172.75;1617762;87;28099;-86
2022/07/27 09:07:39;;;;;;;4.58;2.10;;;;;;;21.73;100.00;98167.78;1658894;84;28008;-85
2022/07/27 09:10:06;;;;;;;2.55;2.00;;;;;;;22.00;100.00;98175.14;1659062;83;28075;-86
2022/07/27 09:12:40;;;;;;;2.58;1.90;;;;;;;22.18;100.00;98170.76;1659198;84;28087;-86
2022/07/27 09:15:12;;;;;;;1.40;1.30;;;;;;;22.35;100.00;98178.03;1658809;84;28146;-86
2022/07/27 09:17:40;;;;;;;2.22;1.80;;;;;;;22.59;100.00;98168.33;1657185;84;28019;-84
2022/07/27 09:20:10;;;;;;;2.42;1.90;;;;;;;22.75;100.00;98164.62;1658915;83;28036;-85
2022/07/27 09:22:52;;;;;;;3.62;1.92;;;;;;;22.79;100.00;98165.41;1658801;85;28091;-85
2022/07/27 09:25:25;;;;;;;5.37;1.92;;;;;;;22.67;100.00;98160.22;1658825;84;28100;-85
2022/07/27 09:27:56;;;;;;;3.45;1.95;;;;;;;22.56;100.00;98161.23;1658765;84;28125;-88
2022/07/27 09:30:26;;;;;;;5.37;2.87;;;;;;;22.52;100.00;98156.79;1658752;84;28183;-89
2022/07/27 09:32:58;;;;;;;2.45;1.98;;;;;;;22.58;100.00;98151.20;1657551;84;28059;-88
2022/07/27 09:35:33;;;;;;;2.55;1.90;;;;;;;22.61;100.00;98152.14;1658947;84;28152;-89
2022/07/27 09:38:19;;;;;;;1.65;1.55;;;;;;;22.81;100.00;98149.18;1658332;84;28073;-88
2022/07/27 09:40:48;;;;;;;2.62;1.47;;;;;;;22.86;100.00;98146.77;1659388;83;28156;-86
2022/07/27 09:43:20;;;;;;;2.87;1.75;;;;;;;22.76;100.00;98140.92;1657564;86;28071;-86
2022/07/27 09:45:47;;;;;;;4.78;1.40;;;;;;;22.62;100.00;98137.80;1659349;84;28035;-86
2022/07/27 09:48:21;;;;;;;4.15;1.60;;;;;;;22.72;100.00;98145.00;1658705;84;28087;-88
2022/07/27 09:51:00;;;;;;;1.92;1.50;;;;;;;22.67;100.00;98142.88;1657183;84;28073;-88
2022/07/27 09:53:31;;;;;;;4.65;1.57;;;;;;;22.68;100.00;98137.87;1659039;84;28173;-86
2022/07/27 09:56:00;;;;;;;1.70;1.30;;;;;;;22.67;100.00;98142.05;1659833;83;28006;-86
2022/07/27 09:58:40;;;;;;;3.00;1.40;;;;;;;22.67;100.00;98142.88;1657326;84;28065;-86
2022/07/27 10:01:08;;;;;;;1.60;1.20;;;;;;;22.72;100.00;98141.00;1658972;84;28157;-88
2022/07/27 10:03:35;;;;;;;1.40;1.17;;;;;;;22.80;100.00;98143.55;1692434;84;28074;-89
2022/07/27 10:06:02;;;;;;;3.70;1.60;;;;;;;23.06;100.00;98145.62;1693671;82;28177;-88
2022/07/27 10:08:30;;;;;;;2.17;1.30;;;;;;;23.14;100.00;98146.29;1687609;83;28074;-86
2022/07/27 10:10:57;;;;;;;2.45;1.42;;;;;;;23.25;100.00;98143.59;1693683;83;28120;-85
2022/07/27 10:13:26;;;;;;;2.65;1.52;;;;;;;23.33;100.00;98146.13;1683287;83;28099;-89
2022/07/27 10:15:54;;;;;;;2.10;1.45;;;;;;;23.38;100.00;98143.70;1692931;83;28106;-89
2022/07/27 10:18:34;;;;;;;;;;;;;;;23.54;100.00;98145.27;1695805;82;28092;-88
2022/07/27 10:21:01;;;;;;;;;;;;;;;23.56;100.00;98147.25;1674653;84;22005;-88
2022/07/27 10:23:29;;;;;;;3.50;1.85;;;;;;;23.57;100.00;98146.20;1665802;84;26057;-89
2022/07/27 10:26:17;;;;;;;2.67;1.47;;;;;;;23.55;100.00;98148.27;1668307;84;28159;-88
2022/07/27 10:28:59;;;;;;;1.60;1.17;;;;;;;23.56;100.00;98145.41;1604920;87;28075;-86
2022/07/27 10:31:35;;;;;;;2.62;1.90;;;;;;;23.68;100.00;98146.48;1655921;84;28156;-86
2022/07/27 10:34:05;;;;;;;2.20;1.67;;;;;;;23.75;100.00;98142.00;1667329;84;28116;-86
2022/07/27 10:36:35;;;;;;;2.15;1.70;;;;;;;23.86;100.00;98146.47;1668753;84;28160;-86
2022/07/27 10:39:08;;;;;;;4.42;1.60;;;;;;;23.92;100.00;98154.53;1659191;84;28092;-86
2022/07/27 10:41:40;;;;;;;4.12;2.00;;;;;;;24.02;100.00;98150.14;1668486;84;28112;-86
2022/07/27 10:44:25;;;;;;;2.22;1.57;;;;;;;24.11;100.00;98155.11;1668599;84;28110;-86
2022/07/27 10:46:53;;;;;;;3.35;1.70;;;;;;;24.12;100.00;98159.95;1667218;84;28073;-89
2022/07/27 10:49:27;;;;;;;1.98;1.65;;;;;;;24.26;100.00;98151.52;1670383;84;27992;-89
2022/07/27 10:51:56;;;;;;;2.85;1.87;;;;;;;24.21;100.00;98151.29;1669350;84;28065;-86
2022/07/27 10:54:31;;;;;;;5.05;1.77;;;;;;;24.16;100.00;98146.52;1667039;84;28083;-85
2022/07/27 10:56:59;;;;;;;2.52;1.90;;;;;;;24.17;100.00;98146.33;1669928;84;28052;-86
2022/07/27 10:59:45;;;;;;;2.58;1.57;;;;;;;24.46;100.00;98146.52;1668671;84;28130;-86
2022/07/27 11:02:19;;;;;;;1.82;1.70;;;;;;;24.57;100.00;98153.13;1658569;84;28035;-86
2022/07/27 11:04:51;;;;;;;2.40;1.67;;;;;;;24.51;100.00;98152.09;1637830;85;28011;-86
2022/07/27 11:07:20;;;;;;;2.10;1.82;;;;;;;24.58;99.77;98143.58;1633705;85;28116;-85
2022/07/27 11:09:51;;;;;;;3.52;1.72;;;;;;;24.48;98.80;98139.13;1637419;85;28145;-86
2022/07/27 11:12:18;;;;;;;3.33;2.20;;;;;;;24.42;98.09;98131.08;1636883;85;28123;-86
2022/07/27 11:14:53;;;;;;;2.33;1.75;;;;;;;24.52;98.00;98135.52;1636512;86;28092;-89
2022/07/27 11:17:25;;;;;;;3.52;2.50;;;;;;;24.79;98.30;98135.88;1637137;86;28011;-89
2022/07/27 11:19:56;;;;;;;3.55;2.72;;;;;;;25.00;98.41;98142.92;1635033;86;28167;-86
2022/07/27 11:22:31;;;;;;;6.03;2.42;;;;;;;25.05;97.88;98132.92;1637145;85;28073;-86
2022/07/27 11:24:58;;;;;;;3.72;2.52;;;;;;;24.89;97.04;98134.98;1634778;85;28011;-86
2022/07/27 11:27:31;;;;;;;4.83;2.70;;;;;;;24.64;95.77;98133.08;1637635;85;28137;-89
2022/07/27 11:29:57;;;;;;;5.62;2.65;;;;;;;24.45;94.97;98127.98;1638509;86;28065;-86
2022/07/27 11:32:24;;;;;;;3.77;2.15;;;;;;;24.39;94.64;98124.27;1637983;85;28120;-85
2022/07/27 11:34:52;;;;;;;2.92;2.22;;;;;;;24.42;94.35;98117.70;1637502;86;28200;-85
2022/07/27 11:37:24;;;;;;;3.02;2.27;;;;;;;24.52;94.22;98120.81;1638357;86;28015;-86
2022/07/27 11:40:00;;;;;;;3.33;2.20;;;;;;;24.43;93.34;98113.50;1636858;85;28131;-89
2022/07/27 11:42:38;;;;;;;3.37;2.20;;;;;;;24.31;92.51;98109.77;1635550;85;28203;-86